sim
Sign-in with your pilot id or email,
or register
Callsign
Passwort

Schedule Details

Flight Number: DLH1971 (3)
Departure: Palermo Falcone-Borsellino Airport (LICJ) at 08:50
Arrival: Munich Airport (EDDM) at 10:55
Route: Lufthansa Passenger Schedule. Enter filed route here before submitting Pirep.

Weather Information
Getting current METAR information for LICJ 210650Z 21004KT 170V240 CAVOK 26/20 Q1016
Getting current METAR information for EDDM 210650Z VRB01KT CAVOK 11/11 Q1017 BECMG 09005KT

Schedule Frequency

Route Map